sensor_id;sensor_type;location;lat;lon;timestamp;P1;durP1;ratioP1;P2;durP2;ratioP2
16832;SDS011;8533;48.426;10.868;2022-10-15T00:01:16;3.47;;;1.33;;
16832;SDS011;8533;48.426;10.868;2022-10-15T00:06:09;1.53;;;1.30;;
16832;SDS011;8533;48.426;10.868;2022-10-15T00:08:39;1.90;;;1.40;;
16832;SDS011;8533;48.426;10.868;2022-10-15T00:11:10;2.63;;;1.60;;
16832;SDS011;8533;48.426;10.868;2022-10-15T00:13:37;2.00;;;1.70;;
16832;SDS011;8533;48.426;10.868;2022-10-15T00:16:10;1.93;;;1.40;;
16832;SDS011;8533;48.426;10.868;2022-10-15T00:18:35;1.83;;;1.53;;
16832;SDS011;8533;48.426;10.868;2022-10-15T00:21:06;1.50;;;1.40;;
16832;SDS011;8533;48.426;10.868;2022-10-15T00:23:36;3.33;;;1.53;;
16832;SDS011;8533;48.426;10.868;2022-10-15T00:26:04;2.57;;;1.73;;
16832;SDS011;8533;48.426;10.868;2022-10-15T00:28:34;2.00;;;1.57;;
16832;SDS011;8533;48.426;10.868;2022-10-15T00:31:03;3.30;;;2.00;;
16832;SDS011;8533;48.426;10.868;2022-10-15T00:33:32;1.20;;;1.10;;
16832;SDS011;8533;48.426;10.868;2022-10-15T00:36:00;1.53;;;1.30;;
16832;SDS011;8533;48.426;10.868;2022-10-15T00:38:29;1.57;;;1.37;;
16832;SDS011;8533;48.426;10.868;2022-10-15T00:40:57;2.37;;;1.33;;
16832;SDS011;8533;48.426;10.868;2022-10-15T00:43:42;2.77;;;1.53;;
16832;SDS011;8533;48.426;10.868;2022-10-15T00:49:16;2.37;;;1.50;;
16832;SDS011;8533;48.426;10.868;2022-10-15T00:54:09;1.90;;;1.57;;
16832;SDS011;8533;48.426;10.868;2022-10-15T00:56:38;2.07;;;1.40;;
16832;SDS011;8533;48.426;10.868;2022-10-15T00:59:07;1.87;;;1.73;;
16832;SDS011;8533;48.426;10.868;2022-10-15T01:01:35;1.60;;;1.50;;
16832;SDS011;8533;48.426;10.868;2022-10-15T01:04:02;1.63;;;1.37;;
16832;SDS011;8533;48.426;10.868;2022-10-15T01:06:31;1.40;;;1.30;;
16832;SDS011;8533;48.426;10.868;2022-10-15T01:08:59;3.50;;;1.60;;
16832;SDS011;8533;48.426;10.868;2022-10-15T01:11:37;1.60;;;1.20;;
16832;SDS011;8533;48.426;10.868;2022-10-15T01:14:14;1.20;;;1.10;;
16832;SDS011;8533;48.426;10.868;2022-10-15T01:17:04;1.67;;;1.20;;
16832;SDS011;8533;48.426;10.868;2022-10-15T01:22:45;3.17;;;1.50;;
16832;SDS011;8533;48.426;10.868;2022-10-15T01:25:41;1.40;;;1.30;;
16832;SDS011;8533;48.426;10.868;2022-10-15T01:28:17;1.90;;;1.20;;
16832;SDS011;8533;48.426;10.868;2022-10-15T01:31:06;1.83;;;1.37;;
16832;SDS011;8533;48.426;10.868;2022-10-15T01:46:18;1.23;;;1.13;;
16832;SDS011;8533;48.426;10.868;2022-10-15T01:48:46;1.43;;;1.00;;
16832;SDS011;8533;48.426;10.868;2022-10-15T01:51:15;1.93;;;1.20;;
16832;SDS011;8533;48.426;10.868;2022-10-15T01:53:44;1.33;;;1.23;;
16832;SDS011;8533;48.426;10.868;2022-10-15T01:56:16;1.20;;;1.10;;
16832;SDS011;8533;48.426;10.868;2022-10-15T01:58:45;1.20;;;1.10;;
16832;SDS011;8533;48.426;10.868;2022-10-15T02:01:15;1.60;;;1.30;;
16832;SDS011;8533;48.426;10.868;2022-10-15T02:03:51;0.90;;;0.90;;
16832;SDS011;8533;48.426;10.868;2022-10-15T02:06:21;0.97;;;0.97;;
16832;SDS011;8533;48.426;10.868;2022-10-15T02:08:55;1.37;;;0.93;;
16832;SDS011;8533;48.426;10.868;2022-10-15T02:14:01;1.13;;;1.03;;
16832;SDS011;8533;48.426;10.868;2022-10-15T02:19:28;1.83;;;1.20;;
16832;SDS011;8533;48.426;10.868;2022-10-15T02:22:13;0.80;;;0.80;;
16832;SDS011;8533;48.426;10.868;2022-10-15T02:27:22;0.90;;;0.90;;
16832;SDS011;8533;48.426;10.868;2022-10-15T02:29:52;0.80;;;0.80;;
16832;SDS011;8533;48.426;10.868;2022-10-15T02:32:23;1.00;;;0.90;;
16832;SDS011;8533;48.426;10.868;2022-10-15T02:34:52;1.20;;;1.10;;
16832;SDS011;8533;48.426;10.868;2022-10-15T02:37:21;0.50;;;0.50;;
16832;SDS011;8533;48.426;10.868;2022-10-15T02:39:50;0.80;;;0.80;;
16832;SDS011;8533;48.426;10.868;2022-10-15T02:42:18;0.90;;;0.90;;
16832;SDS011;8533;48.426;10.868;2022-10-15T02:44:45;0.63;;;0.63;;
16832;SDS011;8533;48.426;10.868;2022-10-15T02:47:13;0.80;;;0.80;;
16832;SDS011;8533;48.426;10.868;2022-10-15T02:49:41;1.13;;;0.90;;
16832;SDS011;8533;48.426;10.868;2022-10-15T02:52:08;0.60;;;0.60;;
16832;SDS011;8533;48.426;10.868;2022-10-15T02:54:36;1.07;;;0.77;;
16832;SDS011;8533;48.426;10.868;2022-10-15T02:57:03;1.00;;;0.80;;
16832;SDS011;8533;48.426;10.868;2022-10-15T02:59:31;0.70;;;0.70;;
16832;SDS011;8533;48.426;10.868;2022-10-15T03:01:58;0.60;;;0.60;;
16832;SDS011;8533;48.426;10.868;2022-10-15T03:04:25;0.53;;;0.53;;
16832;SDS011;8533;48.426;10.868;2022-10-15T03:06:53;0.73;;;0.73;;
16832;SDS011;8533;48.426;10.868;2022-10-15T03:09:20;1.40;;;0.70;;
16832;SDS011;8533;48.426;10.868;2022-10-15T03:11:48;0.80;;;0.80;;
16832;SDS011;8533;48.426;10.868;2022-10-15T03:14:15;0.87;;;0.87;;
16832;SDS011;8533;48.426;10.868;2022-10-15T03:16:43;0.77;;;0.67;;
16832;SDS011;8533;48.426;10.868;2022-10-15T03:19:10;1.83;;;0.97;;
16832;SDS011;8533;48.426;10.868;2022-10-15T03:21:37;0.80;;;0.70;;
16832;SDS011;8533;48.426;10.868;2022-10-15T03:24:05;0.77;;;0.70;;
16832;SDS011;8533;48.426;10.868;2022-10-15T03:26:33;0.70;;;0.70;;
16832;SDS011;8533;48.426;10.868;2022-10-15T03:29:00;0.70;;;0.70;;
16832;SDS011;8533;48.426;10.868;2022-10-15T03:31:27;0.70;;;0.70;;
16832;SDS011;8533;48.426;10.868;2022-10-15T03:33:55;0.70;;;0.70;;
16832;SDS011;8533;48.426;10.868;2022-10-15T03:36:22;0.53;;;0.53;;
16832;SDS011;8533;48.426;10.868;2022-10-15T03:38:50;0.83;;;0.83;;
16832;SDS011;8533;48.426;10.868;2022-10-15T03:41:17;5.30;;;1.20;;
16832;SDS011;8533;48.426;10.868;2022-10-15T03:43:44;1.03;;;0.70;;
16832;SDS011;8533;48.426;10.868;2022-10-15T03:46:12;1.10;;;0.90;;
16832;SDS011;8533;48.426;10.868;2022-10-15T03:48:41;0.50;;;0.50;;
16832;SDS011;8533;48.426;10.868;2022-10-15T03:51:08;0.90;;;0.90;;
16832;SDS011;8533;48.426;10.868;2022-10-15T03:53:35;1.57;;;0.90;;
16832;SDS011;8533;48.426;10.868;2022-10-15T03:56:03;0.90;;;0.90;;
16832;SDS011;8533;48.426;10.868;2022-10-15T03:58:32;0.57;;;0.57;;
16832;SDS011;8533;48.426;10.868;2022-10-15T04:00:59;0.50;;;0.50;;
16832;SDS011;8533;48.426;10.868;2022-10-15T04:03:27;0.87;;;0.87;;
16832;SDS011;8533;48.426;10.868;2022-10-15T04:05:54;4.03;;;0.77;;
16832;SDS011;8533;48.426;10.868;2022-10-15T04:08:22;0.63;;;0.63;;
16832;SDS011;8533;48.426;10.868;2022-10-15T04:10:49;1.77;;;0.90;;
16832;SDS011;8533;48.426;10.868;2022-10-15T04:13:17;0.80;;;0.80;;
16832;SDS011;8533;48.426;10.868;2022-10-15T04:15:44;0.77;;;0.77;;
16832;SDS011;8533;48.426;10.868;2022-10-15T04:18:12;0.83;;;0.80;;
16832;SDS011;8533;48.426;10.868;2022-10-15T04:20:40;0.73;;;0.73;;
16832;SDS011;8533;48.426;10.868;2022-10-15T04:23:08;2.10;;;0.73;;
16832;SDS011;8533;48.426;10.868;2022-10-15T04:25:35;0.60;;;0.60;;
16832;SDS011;8533;48.426;10.868;2022-10-15T04:28:03;0.60;;;0.60;;
16832;SDS011;8533;48.426;10.868;2022-10-15T04:30:31;0.80;;;0.80;;
16832;SDS011;8533;48.426;10.868;2022-10-15T04:32:58;0.60;;;0.60;;
16832;SDS011;8533;48.426;10.868;2022-10-15T04:35:26;0.63;;;0.63;;
16832;SDS011;8533;48.426;10.868;2022-10-15T04:37:55;0.67;;;0.67;;
16832;SDS011;8533;48.426;10.868;2022-10-15T04:40:24;0.90;;;0.90;;
16832;SDS011;8533;48.426;10.868;2022-10-15T04:42:51;0.90;;;0.90;;
16832;SDS011;8533;48.426;10.868;2022-10-15T04:45:19;0.87;;;0.77;;
16832;SDS011;8533;48.426;10.868;2022-10-15T04:47:46;0.60;;;0.60;;
16832;SDS011;8533;48.426;10.868;2022-10-15T04:50:13;0.87;;;0.87;;
16832;SDS011;8533;48.426;10.868;2022-10-15T04:52:41;0.67;;;0.67;;
16832;SDS011;8533;48.426;10.868;2022-10-15T04:55:08;0.67;;;0.67;;
16832;SDS011;8533;48.426;10.868;2022-10-15T04:57:36;2.10;;;1.13;;
16832;SDS011;8533;48.426;10.868;2022-10-15T05:00:03;0.90;;;0.80;;
16832;SDS011;8533;48.426;10.868;2022-10-15T05:02:31;0.83;;;0.83;;
16832;SDS011;8533;48.426;10.868;2022-10-15T05:04:59;1.10;;;1.00;;
16832;SDS011;8533;48.426;10.868;2022-10-15T05:07:26;0.80;;;0.80;;
16832;SDS011;8533;48.426;10.868;2022-10-15T05:09:53;0.80;;;0.80;;
16832;SDS011;8533;48.426;10.868;2022-10-15T05:12:21;1.37;;;0.80;;
16832;SDS011;8533;48.426;10.868;2022-10-15T05:14:48;0.90;;;0.90;;
16832;SDS011;8533;48.426;10.868;2022-10-15T05:17:16;0.73;;;0.73;;
16832;SDS011;8533;48.426;10.868;2022-10-15T05:19:43;0.83;;;0.80;;
16832;SDS011;8533;48.426;10.868;2022-10-15T05:22:10;0.87;;;0.87;;
16832;SDS011;8533;48.426;10.868;2022-10-15T05:24:38;0.83;;;0.80;;
16832;SDS011;8533;48.426;10.868;2022-10-15T05:27:05;1.23;;;1.10;;
16832;SDS011;8533;48.426;10.868;2022-10-15T05:29:33;0.60;;;0.60;;
16832;SDS011;8533;48.426;10.868;2022-10-15T05:32:00;0.87;;;0.87;;
16832;SDS011;8533;48.426;10.868;2022-10-15T05:34:28;0.97;;;0.93;;
16832;SDS011;8533;48.426;10.868;2022-10-15T05:36:55;0.67;;;0.67;;
16832;SDS011;8533;48.426;10.868;2022-10-15T05:39:23;0.70;;;0.70;;
16832;SDS011;8533;48.426;10.868;2022-10-15T05:41:50;3.57;;;1.00;;
16832;SDS011;8533;48.426;10.868;2022-10-15T05:44:18;0.80;;;0.80;;
16832;SDS011;8533;48.426;10.868;2022-10-15T05:46:45;1.20;;;0.80;;
16832;SDS011;8533;48.426;10.868;2022-10-15T05:49:12;2.07;;;0.90;;
16832;SDS011;8533;48.426;10.868;2022-10-15T05:51:40;0.77;;;0.77;;
16832;SDS011;8533;48.426;10.868;2022-10-15T05:54:07;0.80;;;0.80;;
16832;SDS011;8533;48.426;10.868;2022-10-15T05:56:35;0.80;;;0.80;;
16832;SDS011;8533;48.426;10.868;2022-10-15T05:59:02;0.60;;;0.60;;
16832;SDS011;8533;48.426;10.868;2022-10-15T06:01:30;1.67;;;0.70;;
16832;SDS011;8533;48.426;10.868;2022-10-15T06:03:57;0.70;;;0.70;;
16832;SDS011;8533;48.426;10.868;2022-10-15T06:06:25;2.23;;;0.60;;
16832;SDS011;8533;48.426;10.868;2022-10-15T06:08:53;1.23;;;0.90;;
16832;SDS011;8533;48.426;10.868;2022-10-15T06:11:21;0.90;;;0.90;;
16832;SDS011;8533;48.426;10.868;2022-10-15T06:13:48;0.70;;;0.70;;
16832;SDS011;8533;48.426;10.868;2022-10-15T06:16:16;0.90;;;0.90;;
16832;SDS011;8533;48.426;10.868;2022-10-15T06:18:43;0.80;;;0.80;;
16832;SDS011;8533;48.426;10.868;2022-10-15T06:21:11;0.80;;;0.80;;
16832;SDS011;8533;48.426;10.868;2022-10-15T06:23:39;0.73;;;0.73;;
16832;SDS011;8533;48.426;10.868;2022-10-15T06:26:06;0.73;;;0.73;;
16832;SDS011;8533;48.426;10.868;2022-10-15T06:28:35;0.90;;;0.90;;
16832;SDS011;8533;48.426;10.868;2022-10-15T06:31:04;0.83;;;0.83;;
16832;SDS011;8533;48.426;10.868;2022-10-15T06:33:32;0.90;;;0.90;;
16832;SDS011;8533;48.426;10.868;2022-10-15T06:36:01;0.90;;;0.90;;
16832;SDS011;8533;48.426;10.868;2022-10-15T06:38:30;0.60;;;0.60;;
16832;SDS011;8533;48.426;10.868;2022-10-15T06:40:58;1.10;;;1.00;;
16832;SDS011;8533;48.426;10.868;2022-10-15T06:43:25;1.37;;;1.13;;
16832;SDS011;8533;48.426;10.868;2022-10-15T06:45:53;0.57;;;0.57;;
16832;SDS011;8533;48.426;10.868;2022-10-15T06:48:20;0.80;;;0.80;;
16832;SDS011;8533;48.426;10.868;2022-10-15T06:50:47;0.80;;;0.80;;
16832;SDS011;8533;48.426;10.868;2022-10-15T06:53:15;1.90;;;1.10;;
16832;SDS011;8533;48.426;10.868;2022-10-15T06:55:43;2.13;;;0.63;;
16832;SDS011;8533;48.426;10.868;2022-10-15T06:58:10;0.63;;;0.57;;
16832;SDS011;8533;48.426;10.868;2022-10-15T07:00:38;0.60;;;0.60;;
16832;SDS011;8533;48.426;10.868;2022-10-15T07:03:05;3.60;;;1.00;;
16832;SDS011;8533;48.426;10.868;2022-10-15T07:05:33;1.07;;;0.90;;
16832;SDS011;8533;48.426;10.868;2022-10-15T07:08:01;1.17;;;1.07;;
16832;SDS011;8533;48.426;10.868;2022-10-15T07:10:28;0.63;;;0.63;;
16832;SDS011;8533;48.426;10.868;2022-10-15T07:12:58;0.50;;;0.50;;
16832;SDS011;8533;48.426;10.868;2022-10-15T07:15:26;2.80;;;0.80;;
16832;SDS011;8533;48.426;10.868;2022-10-15T07:17:54;1.00;;;0.80;;
16832;SDS011;8533;48.426;10.868;2022-10-15T07:20:24;0.47;;;0.47;;
16832;SDS011;8533;48.426;10.868;2022-10-15T07:22:55;0.83;;;0.83;;
16832;SDS011;8533;48.426;10.868;2022-10-15T07:25:24;1.53;;;0.80;;
16832;SDS011;8533;48.426;10.868;2022-10-15T07:27:53;0.50;;;0.50;;
16832;SDS011;8533;48.426;10.868;2022-10-15T07:30:22;0.60;;;0.60;;
16832;SDS011;8533;48.426;10.868;2022-10-15T07:32:52;0.90;;;0.90;;
16832;SDS011;8533;48.426;10.868;2022-10-15T07:35:26;0.63;;;0.63;;
16832;SDS011;8533;48.426;10.868;2022-10-15T07:37:54;0.57;;;0.57;;
16832;SDS011;8533;48.426;10.868;2022-10-15T07:40:21;1.37;;;0.43;;
16832;SDS011;8533;48.426;10.868;2022-10-15T07:42:52;0.63;;;0.63;;
16832;SDS011;8533;48.426;10.868;2022-10-15T07:45:21;0.40;;;0.40;;
16832;SDS011;8533;48.426;10.868;2022-10-15T07:47:49;0.60;;;0.60;;
16832;SDS011;8533;48.426;10.868;2022-10-15T07:50:18;0.37;;;0.30;;
16832;SDS011;8533;48.426;10.868;2022-10-15T07:52:46;0.87;;;0.70;;
16832;SDS011;8533;48.426;10.868;2022-10-15T07:55:13;1.27;;;0.80;;
16832;SDS011;8533;48.426;10.868;2022-10-15T07:57:41;0.77;;;0.50;;
16832;SDS011;8533;48.426;10.868;2022-10-15T08:00:09;1.00;;;0.50;;
16832;SDS011;8533;48.426;10.868;2022-10-15T08:02:36;1.67;;;1.57;;
16832;SDS011;8533;48.426;10.868;2022-10-15T08:05:05;0.30;;;0.30;;
16832;SDS011;8533;48.426;10.868;2022-10-15T08:07:33;1.00;;;0.60;;
16832;SDS011;8533;48.426;10.868;2022-10-15T08:10:00;0.60;;;0.60;;
16832;SDS011;8533;48.426;10.868;2022-10-15T08:12:30;0.70;;;0.70;;
16832;SDS011;8533;48.426;10.868;2022-10-15T08:14:57;0.50;;;0.50;;
16832;SDS011;8533;48.426;10.868;2022-10-15T08:17:24;0.50;;;0.50;;
16832;SDS011;8533;48.426;10.868;2022-10-15T08:19:52;0.53;;;0.53;;
16832;SDS011;8533;48.426;10.868;2022-10-15T08:22:20;0.57;;;0.53;;
16832;SDS011;8533;48.426;10.868;2022-10-15T08:24:48;2.57;;;0.80;;
16832;SDS011;8533;48.426;10.868;2022-10-15T08:27:17;0.60;;;0.60;;
16832;SDS011;8533;48.426;10.868;2022-10-15T08:29:44;0.60;;;0.60;;
16832;SDS011;8533;48.426;10.868;2022-10-15T08:32:12;0.50;;;0.50;;
16832;SDS011;8533;48.426;10.868;2022-10-15T08:34:39;0.40;;;0.40;;
16832;SDS011;8533;48.426;10.868;2022-10-15T08:37:07;0.60;;;0.60;;
16832;SDS011;8533;48.426;10.868;2022-10-15T08:39:34;0.90;;;0.90;;
16832;SDS011;8533;48.426;10.868;2022-10-15T08:42:03;0.60;;;0.60;;
16832;SDS011;8533;48.426;10.868;2022-10-15T08:44:35;0.50;;;0.50;;
16832;SDS011;8533;48.426;10.868;2022-10-15T08:49:44;0.60;;;0.60;;
16832;SDS011;8533;48.426;10.868;2022-10-15T08:52:28;1.10;;;0.70;;
16832;SDS011;8533;48.426;10.868;2022-10-15T08:59:59;0.40;;;0.40;;
16832;SDS011;8533;48.426;10.868;2022-10-15T09:02:46;0.30;;;0.30;;
16832;SDS011;8533;48.426;10.868;2022-10-15T09:05:40;0.33;;;0.33;;
16832;SDS011;8533;48.426;10.868;2022-10-15T09:13:12;0.43;;;0.43;;
16832;SDS011;8533;48.426;10.868;2022-10-15T09:15:48;0.27;;;0.27;;
16832;SDS011;8533;48.426;10.868;2022-10-15T09:20:46;0.20;;;0.20;;
16832;SDS011;8533;48.426;10.868;2022-10-15T09:23:16;1.27;;;0.30;;
16832;SDS011;8533;48.426;10.868;2022-10-15T09:25:47;0.20;;;0.20;;
16832;SDS011;8533;48.426;10.868;2022-10-15T09:28:16;0.20;;;0.20;;
16832;SDS011;8533;48.426;10.868;2022-10-15T09:30:50;0.30;;;0.30;;
16832;SDS011;8533;48.426;10.868;2022-10-15T09:38:59;1.13;;;0.40;;
16832;SDS011;8533;48.426;10.868;2022-10-15T09:44:10;2.10;;;0.40;;
16832;SDS011;8533;48.426;10.868;2022-10-15T09:46:47;0.67;;;0.60;;
16832;SDS011;8533;48.426;10.868;2022-10-15T09:49:13;0.60;;;0.60;;
16832;SDS011;8533;48.426;10.868;2022-10-15T09:51:49;0.47;;;0.47;;
16832;SDS011;8533;48.426;10.868;2022-10-15T09:54:25;0.60;;;0.60;;
16832;SDS011;8533;48.426;10.868;2022-10-15T09:57:10;0.60;;;0.60;;
16832;SDS011;8533;48.426;10.868;2022-10-15T09:59:53;1.03;;;0.67;;
16832;SDS011;8533;48.426;10.868;2022-10-15T10:02:24;0.85;;;0.85;;
16832;SDS011;8533;48.426;10.868;2022-10-15T10:04:52;0.77;;;0.77;;
16832;SDS011;8533;48.426;10.868;2022-10-15T10:07:30;0.50;;;0.50;;
16832;SDS011;8533;48.426;10.868;2022-10-15T10:12:30;0.60;;;0.60;;
16832;SDS011;8533;48.426;10.868;2022-10-15T10:20:23;0.80;;;0.80;;
16832;SDS011;8533;48.426;10.868;2022-10-15T10:28:04;0.60;;;0.60;;
16832;SDS011;8533;48.426;10.868;2022-10-15T10:30:34;1.27;;;0.70;;
16832;SDS011;8533;48.426;10.868;2022-10-15T10:35:42;0.47;;;0.47;;
16832;SDS011;8533;48.426;10.868;2022-10-15T10:40:55;0.70;;;0.70;;
16832;SDS011;8533;48.426;10.868;2022-10-15T10:46:01;0.70;;;0.70;;
16832;SDS011;8533;48.426;10.868;2022-10-15T10:48:52;1.93;;;0.97;;
16832;SDS011;8533;48.426;10.868;2022-10-15T10:51:14;0.50;;;0.50;;
16832;SDS011;8533;48.426;10.868;2022-10-15T10:54:05;4.07;;;0.90;;
16832;SDS011;8533;48.426;10.868;2022-10-15T10:56:33;3.40;;;0.70;;
16832;SDS011;8533;48.426;10.868;2022-10-15T11:01:45;1.20;;;0.90;;
16832;SDS011;8533;48.426;10.868;2022-10-15T11:04:22;0.70;;;0.70;;
16832;SDS011;8533;48.426;10.868;2022-10-15T11:11:58;5.73;;;1.10;;
16832;SDS011;8533;48.426;10.868;2022-10-15T11:17:48;1.37;;;0.70;;
16832;SDS011;8533;48.426;10.868;2022-10-15T11:20:20;1.50;;;0.70;;
16832;SDS011;8533;48.426;10.868;2022-10-15T11:26:00;1.47;;;0.70;;
16832;SDS011;8533;48.426;10.868;2022-10-15T11:28:53;3.03;;;0.77;;
16832;SDS011;8533;48.426;10.868;2022-10-15T11:37:27;0.60;;;0.60;;
16832;SDS011;8533;48.426;10.868;2022-10-15T11:40:12;1.13;;;0.80;;
16832;SDS011;8533;48.426;10.868;2022-10-15T11:48:10;0.77;;;0.60;;
16832;SDS011;8533;48.426;10.868;2022-10-15T11:51:11;1.07;;;0.97;;
16832;SDS011;8533;48.426;10.868;2022-10-15T11:56:33;2.50;;;0.60;;
16832;SDS011;8533;48.426;10.868;2022-10-15T11:59:04;1.07;;;0.90;;
16832;SDS011;8533;48.426;10.868;2022-10-15T12:06:58;0.73;;;0.70;;
16832;SDS011;8533;48.426;10.868;2022-10-15T12:09:29;1.33;;;0.70;;
16832;SDS011;8533;48.426;10.868;2022-10-15T12:12:04;1.67;;;0.80;;
16832;SDS011;8533;48.426;10.868;2022-10-15T12:14:54;0.60;;;0.60;;
16832;SDS011;8533;48.426;10.868;2022-10-15T12:19:59;1.17;;;0.77;;
16832;SDS011;8533;48.426;10.868;2022-10-15T12:25:02;3.03;;;0.93;;
16832;SDS011;8533;48.426;10.868;2022-10-15T12:27:31;1.37;;;0.70;;
16832;SDS011;8533;48.426;10.868;2022-10-15T12:32:41;0.57;;;0.57;;
16832;SDS011;8533;48.426;10.868;2022-10-15T12:37:43;2.93;;;0.90;;
16832;SDS011;8533;48.426;10.868;2022-10-15T12:40:24;0.70;;;0.70;;
16832;SDS011;8533;48.426;10.868;2022-10-15T12:45:21;2.23;;;0.63;;
16832;SDS011;8533;48.426;10.868;2022-10-15T12:47:52;3.00;;;0.70;;
16832;SDS011;8533;48.426;10.868;2022-10-15T12:50:34;1.40;;;0.70;;
16832;SDS011;8533;48.426;10.868;2022-10-15T12:58:48;0.90;;;0.90;;
16832;SDS011;8533;48.426;10.868;2022-10-15T13:11:45;1.07;;;0.87;;
16832;SDS011;8533;48.426;10.868;2022-10-15T13:16:48;0.63;;;0.63;;
16832;SDS011;8533;48.426;10.868;2022-10-15T13:19:17;0.77;;;0.77;;
16832;SDS011;8533;48.426;10.868;2022-10-15T13:21:59;1.40;;;0.70;;
16832;SDS011;8533;48.426;10.868;2022-10-15T13:24:29;0.80;;;0.80;;
16832;SDS011;8533;48.426;10.868;2022-10-15T13:26:59;1.10;;;0.80;;
16832;SDS011;8533;48.426;10.868;2022-10-15T13:29:27;2.87;;;0.90;;
16832;SDS011;8533;48.426;10.868;2022-10-15T13:31:55;0.90;;;0.77;;
16832;SDS011;8533;48.426;10.868;2022-10-15T13:34:24;1.50;;;0.80;;
16832;SDS011;8533;48.426;10.868;2022-10-15T13:36:55;0.70;;;0.70;;
16832;SDS011;8533;48.426;10.868;2022-10-15T13:39:41;1.47;;;0.70;;
16832;SDS011;8533;48.426;10.868;2022-10-15T13:44:34;3.13;;;0.70;;
16832;SDS011;8533;48.426;10.868;2022-10-15T13:47:02;0.43;;;0.43;;
16832;SDS011;8533;48.426;10.868;2022-10-15T13:49:31;0.73;;;0.73;;
16832;SDS011;8533;48.426;10.868;2022-10-15T13:52:00;1.50;;;0.73;;
16832;SDS011;8533;48.426;10.868;2022-10-15T13:54:29;1.20;;;0.93;;
16832;SDS011;8533;48.426;10.868;2022-10-15T13:56:58;0.60;;;0.60;;
16832;SDS011;8533;48.426;10.868;2022-10-15T13:59:27;0.60;;;0.60;;
16832;SDS011;8533;48.426;10.868;2022-10-15T14:02:02;2.20;;;0.80;;
16832;SDS011;8533;48.426;10.868;2022-10-15T14:04:29;0.50;;;0.40;;
16832;SDS011;8533;48.426;10.868;2022-10-15T14:06:58;0.67;;;0.67;;
16832;SDS011;8533;48.426;10.868;2022-10-15T14:09:29;0.60;;;0.60;;
16832;SDS011;8533;48.426;10.868;2022-10-15T14:11:59;1.10;;;0.50;;
16832;SDS011;8533;48.426;10.868;2022-10-15T14:19:34;1.00;;;0.80;;
16832;SDS011;8533;48.426;10.868;2022-10-15T14:22:03;0.70;;;0.70;;
16832;SDS011;8533;48.426;10.868;2022-10-15T14:24:32;1.30;;;0.80;;
16832;SDS011;8533;48.426;10.868;2022-10-15T14:27:06;0.63;;;0.63;;
16832;SDS011;8533;48.426;10.868;2022-10-15T14:34:56;2.20;;;1.00;;
16832;SDS011;8533;48.426;10.868;2022-10-15T14:45:38;3.07;;;1.07;;
16832;SDS011;8533;48.426;10.868;2022-10-15T14:50:41;0.83;;;0.83;;
16832;SDS011;8533;48.426;10.868;2022-10-15T14:53:08;1.03;;;0.93;;
16832;SDS011;8533;48.426;10.868;2022-10-15T14:55:59;2.20;;;1.07;;
16832;SDS011;8533;48.426;10.868;2022-10-15T14:58:14;1.10;;;1.00;;
16832;SDS011;8533;48.426;10.868;2022-10-15T15:00:44;1.33;;;1.10;;
16832;SDS011;8533;48.426;10.868;2022-10-15T15:03:20;1.30;;;1.20;;
16832;SDS011;8533;48.426;10.868;2022-10-15T15:05:48;1.47;;;1.10;;
16832;SDS011;8533;48.426;10.868;2022-10-15T15:08:18;1.73;;;1.40;;
16832;SDS011;8533;48.426;10.868;2022-10-15T15:10:46;1.93;;;1.40;;
16832;SDS011;8533;48.426;10.868;2022-10-15T15:13:19;5.43;;;1.30;;
16832;SDS011;8533;48.426;10.868;2022-10-15T15:18:18;2.97;;;1.33;;
16832;SDS011;8533;48.426;10.868;2022-10-15T15:20:46;0.83;;;0.83;;
16832;SDS011;8533;48.426;10.868;2022-10-15T15:23:19;1.53;;;0.87;;
16832;SDS011;8533;48.426;10.868;2022-10-15T15:25:49;1.73;;;1.10;;
16832;SDS011;8533;48.426;10.868;2022-10-15T15:28:18;1.07;;;1.03;;
16832;SDS011;8533;48.426;10.868;2022-10-15T15:30:54;3.07;;;0.90;;
16832;SDS011;8533;48.426;10.868;2022-10-15T15:35:59;0.83;;;0.83;;
16832;SDS011;8533;48.426;10.868;2022-10-15T15:38:21;3.20;;;1.40;;
16832;SDS011;8533;48.426;10.868;2022-10-15T15:43:28;1.00;;;0.97;;
16832;SDS011;8533;48.426;10.868;2022-10-15T15:45:55;0.97;;;0.87;;
16832;SDS011;8533;48.426;10.868;2022-10-15T15:48:23;1.17;;;0.80;;
16832;SDS011;8533;48.426;10.868;2022-10-15T15:50:50;1.60;;;1.50;;
16832;SDS011;8533;48.426;10.868;2022-10-15T15:53:18;1.70;;;1.60;;
16832;SDS011;8533;48.426;10.868;2022-10-15T15:55:45;0.93;;;0.93;;
16832;SDS011;8533;48.426;10.868;2022-10-15T15:58:12;4.83;;;3.00;;
16832;SDS011;8533;48.426;10.868;2022-10-15T16:00:40;1.53;;;1.30;;
16832;SDS011;8533;48.426;10.868;2022-10-15T16:03:09;1.23;;;1.13;;
16832;SDS011;8533;48.426;10.868;2022-10-15T16:05:38;1.10;;;1.00;;
16832;SDS011;8533;48.426;10.868;2022-10-15T16:08:07;7.33;;;2.43;;
16832;SDS011;8533;48.426;10.868;2022-10-15T16:10:36;2.20;;;2.00;;
16832;SDS011;8533;48.426;10.868;2022-10-15T16:13:03;2.00;;;1.87;;
16832;SDS011;8533;48.426;10.868;2022-10-15T16:15:31;1.40;;;1.30;;
16832;SDS011;8533;48.426;10.868;2022-10-15T16:17:58;1.43;;;1.33;;
16832;SDS011;8533;48.426;10.868;2022-10-15T16:20:26;1.40;;;1.30;;
16832;SDS011;8533;48.426;10.868;2022-10-15T16:22:53;4.47;;;1.60;;
16832;SDS011;8533;48.426;10.868;2022-10-15T16:25:21;1.97;;;1.70;;
16832;SDS011;8533;48.426;10.868;2022-10-15T16:27:48;3.43;;;1.50;;
16832;SDS011;8533;48.426;10.868;2022-10-15T16:30:16;1.77;;;1.40;;
16832;SDS011;8533;48.426;10.868;2022-10-15T16:32:44;2.27;;;1.40;;
16832;SDS011;8533;48.426;10.868;2022-10-15T16:35:11;1.67;;;1.57;;
16832;SDS011;8533;48.426;10.868;2022-10-15T16:37:39;1.40;;;1.30;;
16832;SDS011;8533;48.426;10.868;2022-10-15T16:40:07;1.47;;;1.27;;
16832;SDS011;8533;48.426;10.868;2022-10-15T16:42:34;1.50;;;1.40;;
16832;SDS011;8533;48.426;10.868;2022-10-15T16:45:02;1.37;;;1.27;;
16832;SDS011;8533;48.426;10.868;2022-10-15T16:47:30;1.40;;;1.30;;
16832;SDS011;8533;48.426;10.868;2022-10-15T16:49:57;2.13;;;1.43;;
16832;SDS011;8533;48.426;10.868;2022-10-15T16:52:24;2.57;;;1.20;;
16832;SDS011;8533;48.426;10.868;2022-10-15T16:54:52;1.43;;;1.30;;
16832;SDS011;8533;48.426;10.868;2022-10-15T16:57:19;1.60;;;1.23;;
16832;SDS011;8533;48.426;10.868;2022-10-15T16:59:47;1.60;;;1.50;;
16832;SDS011;8533;48.426;10.868;2022-10-15T17:02:14;2.43;;;1.50;;
16832;SDS011;8533;48.426;10.868;2022-10-15T17:04:41;1.50;;;1.40;;
16832;SDS011;8533;48.426;10.868;2022-10-15T17:07:09;3.27;;;1.57;;
16832;SDS011;8533;48.426;10.868;2022-10-15T17:09:36;1.60;;;1.50;;
16832;SDS011;8533;48.426;10.868;2022-10-15T17:12:04;1.40;;;1.30;;
16832;SDS011;8533;48.426;10.868;2022-10-15T17:14:32;1.20;;;1.10;;
16832;SDS011;8533;48.426;10.868;2022-10-15T17:16:59;1.53;;;1.30;;
16832;SDS011;8533;48.426;10.868;2022-10-15T17:19:26;1.50;;;1.40;;
16832;SDS011;8533;48.426;10.868;2022-10-15T17:21:54;1.47;;;1.37;;
16832;SDS011;8533;48.426;10.868;2022-10-15T17:24:21;2.57;;;1.97;;
16832;SDS011;8533;48.426;10.868;2022-10-15T17:26:49;2.23;;;1.60;;
16832;SDS011;8533;48.426;10.868;2022-10-15T17:29:17;3.00;;;1.70;;
16832;SDS011;8533;48.426;10.868;2022-10-15T17:31:47;2.37;;;1.50;;
16832;SDS011;8533;48.426;10.868;2022-10-15T17:34:16;1.90;;;1.53;;
16832;SDS011;8533;48.426;10.868;2022-10-15T17:36:47;2.30;;;1.70;;
16832;SDS011;8533;48.426;10.868;2022-10-15T17:39:17;1.70;;;1.60;;
16832;SDS011;8533;48.426;10.868;2022-10-15T17:41:47;1.97;;;1.77;;
16832;SDS011;8533;48.426;10.868;2022-10-15T17:44:18;2.13;;;1.83;;
16832;SDS011;8533;48.426;10.868;2022-10-15T17:46:45;3.37;;;2.33;;
16832;SDS011;8533;48.426;10.868;2022-10-15T17:49:13;2.47;;;1.57;;
16832;SDS011;8533;48.426;10.868;2022-10-15T17:51:42;11.30;;;5.00;;
16832;SDS011;8533;48.426;10.868;2022-10-15T17:54:11;6.00;;;3.13;;
16832;SDS011;8533;48.426;10.868;2022-10-15T17:56:38;7.97;;;4.57;;